Time;durP1;ratioP1;P1;durP2;ratioP2;P2;SDS_P1;SDS_P2;PMS_P1;PMS_P2;Temp;Humidity;BMP_temperature;BMP_pressure;BME280_temperature;BME280_humidity;BME280_pressure;Samples;Min_cycle;Max_cycle;Signal;HPM_P1;HPM_P2
2023/10/27 00:01:46;;;;;;;55.87;2.30;;;;;;;;;;5053212;28;20452;-71
2023/10/27 00:04:13;;;;;;;56.40;2.33;;;;;;;;;;5053270;28;20458;-71
2023/10/27 00:06:40;;;;;;;55.77;2.30;;;;;;;;;;5053515;28;20603;-72
2023/10/27 00:09:07;;;;;;;56.10;2.10;;;;;;;;;;5053420;28;20455;-71
2023/10/27 00:11:36;;;;;;;56.07;2.13;;;;;;;;;;5053112;28;20487;-71
2023/10/27 00:14:03;;;;;;;55.47;2.27;;;;;;;;;;5052991;28;20460;-71
2023/10/27 00:16:31;;;;;;;55.63;2.30;;;;;;;;;;5053180;28;20474;-71
2023/10/27 00:18:58;;;;;;;55.77;2.20;;;;;;;;;;5053328;28;20458;-71
2023/10/27 00:21:25;;;;;;;55.80;2.57;;;;;;;;;;5053266;28;20447;-71
2023/10/27 00:23:53;;;;;;;55.57;2.20;;;;;;;;;;5053133;28;20451;-71
2023/10/27 00:26:20;;;;;;;56.30;2.20;;;;;;;;;;5053143;28;20449;-71
2023/10/27 00:28:48;;;;;;;55.77;2.30;;;;;;;;;;5053067;28;20455;-71
2023/10/27 00:31:15;;;;;;;56.10;2.20;;;;;;;;;;5052929;28;20851;-71
2023/10/27 00:33:42;;;;;;;56.30;2.50;;;;;;;;;;5052982;28;20452;-71
2023/10/27 00:36:09;;;;;;;55.77;2.13;;;;;;;;;;5053545;28;20952;-71
2023/10/27 00:38:36;;;;;;;55.63;2.20;;;;;;;;;;5068589;28;20496;-71
2023/10/27 00:41:04;;;;;;;55.47;2.57;;;;;;;;;;5071089;28;20474;-70
2023/10/27 00:43:31;;;;;;;55.90;2.30;;;;;;;;;;5072311;28;20465;-71
2023/10/27 00:46:00;;;;;;;56.20;2.27;;;;;;;;;;5074455;28;20516;-71
2023/10/27 00:48:27;;;;;;;55.37;2.27;;;;;;;;;;5075872;28;20456;-70
2023/10/27 00:50:54;;;;;;;56.60;3.73;;;;;;;;;;5075724;28;20486;-69
2023/10/27 00:53:21;;;;;;;56.97;2.60;;;;;;;;;;5076037;28;20805;-70
2023/10/27 00:55:48;;;;;;;55.73;2.13;;;;;;;;;;5075910;28;20502;-70
2023/10/27 00:58:16;;;;;;;56.67;3.13;;;;;;;;;;5075941;28;20512;-69
2023/10/27 01:00:43;;;;;;;55.80;2.30;;;;;;;;;;5076068;28;20549;-70
2023/10/27 01:03:12;;;;;;;55.30;2.10;;;;;;;;;;5076525;28;20442;-70
2023/10/27 01:05:39;;;;;;;55.10;2.40;;;;;;;;;;5067676;28;20450;-71
2023/10/27 01:08:06;;;;;;;56.20;2.20;;;;;;;;;;5059272;28;20452;-71
2023/10/27 01:10:33;;;;;;;56.30;2.30;;;;;;;;;;5055540;28;20488;-71
2023/10/27 01:13:00;;;;;;;56.03;2.30;;;;;;;;;;5054264;28;20455;-70
2023/10/27 01:15:29;;;;;;;56.10;2.20;;;;;;;;;;5057473;28;20451;-71
2023/10/27 01:17:56;;;;;;;55.87;2.40;;;;;;;;;;5065723;28;20448;-71
2023/10/27 01:20:25;;;;;;;56.13;2.17;;;;;;;;;;5063326;28;20472;-71
2023/10/27 01:22:53;;;;;;;55.97;2.30;;;;;;;;;;5054380;28;20454;-71
2023/10/27 01:25:20;;;;;;;55.50;2.27;;;;;;;;;;5053328;28;20441;-71
2023/10/27 01:27:48;;;;;;;55.63;2.30;;;;;;;;;;5054602;28;20466;-71
2023/10/27 01:30:15;;;;;;;56.13;2.33;;;;;;;;;;5052840;28;20468;-72
2023/10/27 01:32:43;;;;;;;55.67;2.33;;;;;;;;;;5053945;28;20490;-72
2023/10/27 01:35:10;;;;;;;55.97;2.40;;;;;;;;;;5053328;28;20459;-72
2023/10/27 01:37:37;;;;;;;56.40;2.50;;;;;;;;;;5053106;28;20445;-71
2023/10/27 01:40:06;;;;;;;55.83;2.23;;;;;;;;;;5057312;28;20464;-71
2023/10/27 01:42:34;;;;;;;56.20;2.17;;;;;;;;;;5054544;28;20457;-71
2023/10/27 01:45:04;;;;;;;56.07;2.27;;;;;;;;;;5051873;28;20500;-71
2023/10/27 01:47:31;;;;;;;55.37;2.20;;;;;;;;;;5053769;28;20452;-71
2023/10/27 01:49:58;;;;;;;55.93;2.37;;;;;;;;;;5058092;28;20490;-71
2023/10/27 01:52:25;;;;;;;55.67;2.23;;;;;;;;;;5056492;28;20491;-71
2023/10/27 01:54:53;;;;;;;56.37;2.30;;;;;;;;;;5053683;28;20444;-71
2023/10/27 01:57:22;;;;;;;55.97;2.33;;;;;;;;;;5051689;28;20951;-71
2023/10/27 01:59:49;;;;;;;55.83;2.30;;;;;;;;;;5051563;28;20473;-71
2023/10/27 02:02:16;;;;;;;56.60;2.30;;;;;;;;;;5051616;28;20450;-71
2023/10/27 02:04:43;;;;;;;55.73;2.37;;;;;;;;;;5051458;28;20801;-71
2023/10/27 02:07:12;;;;;;;55.77;2.60;;;;;;;;;;5051627;28;20944;-71
2023/10/27 02:09:39;;;;;;;56.20;2.30;;;;;;;;;;5051739;28;21047;-71
2023/10/27 02:12:09;;;;;;;55.87;2.40;;;;;;;;;;5051304;28;21062;-71
2023/10/27 02:14:38;;;;;;;55.77;2.17;;;;;;;;;;5051357;28;20441;-71
2023/10/27 02:17:05;;;;;;;55.80;2.40;;;;;;;;;;5051510;28;20440;-71
2023/10/27 02:19:32;;;;;;;55.47;2.30;;;;;;;;;;5051612;28;20470;-71
2023/10/27 02:21:59;;;;;;;56.30;2.20;;;;;;;;;;5051297;28;20630;-71
2023/10/27 02:24:26;;;;;;;55.67;2.30;;;;;;;;;;5051213;28;20445;-71
2023/10/27 02:26:53;;;;;;;56.03;2.43;;;;;;;;;;5051353;28;20753;-71
2023/10/27 02:29:20;;;;;;;56.00;2.40;;;;;;;;;;5050990;28;20543;-71
2023/10/27 02:31:49;;;;;;;56.30;2.13;;;;;;;;;;5051284;28;20562;-71
2023/10/27 02:34:16;;;;;;;56.30;2.20;;;;;;;;;;5051470;28;20501;-70
2023/10/27 02:36:43;;;;;;;55.53;2.40;;;;;;;;;;5051076;28;20467;-72
2023/10/27 02:39:10;;;;;;;55.90;2.37;;;;;;;;;;5050910;28;20465;-71
2023/10/27 02:41:37;;;;;;;56.07;2.33;;;;;;;;;;5051147;28;20441;-72
2023/10/27 02:44:04;;;;;;;55.90;2.60;;;;;;;;;;5050736;28;20456;-71
2023/10/27 02:46:31;;;;;;;56.07;2.73;;;;;;;;;;5051141;28;20444;-71
2023/10/27 02:49:00;;;;;;;55.57;2.33;;;;;;;;;;5050966;28;20454;-71
2023/10/27 02:51:27;;;;;;;55.97;2.37;;;;;;;;;;5042843;28;20848;-72
2023/10/27 02:53:54;;;;;;;55.60;2.27;;;;;;;;;;5050647;28;20467;-71
2023/10/27 02:56:21;;;;;;;56.03;2.30;;;;;;;;;;5050438;28;20455;-71
2023/10/27 02:58:48;;;;;;;55.53;2.30;;;;;;;;;;5050791;28;20450;-71
2023/10/27 03:01:15;;;;;;;55.93;2.27;;;;;;;;;;5050546;28;20459;-71
2023/10/27 03:03:42;;;;;;;55.30;2.40;;;;;;;;;;5050650;28;20783;-71
2023/10/27 03:06:11;;;;;;;55.10;2.50;;;;;;;;;;5050553;28;20915;-71
2023/10/27 03:08:39;;;;;;;55.80;2.00;;;;;;;;;;5053619;28;20572;-71
2023/10/27 03:11:08;;;;;;;55.77;2.20;;;;;;;;;;5054254;28;20475;-72
2023/10/27 03:13:35;;;;;;;56.80;2.50;;;;;;;;;;5054817;28;20456;-72
2023/10/27 03:16:03;;;;;;;57.23;3.40;;;;;;;;;;5054486;28;20510;-71
2023/10/27 03:18:30;;;;;;;56.10;2.50;;;;;;;;;;5054814;28;20455;-72
2023/10/27 03:20:57;;;;;;;56.30;2.60;;;;;;;;;;5054252;28;20468;-71
2023/10/27 03:23:26;;;;;;;56.43;2.47;;;;;;;;;;5054186;28;20524;-71
2023/10/27 03:25:53;;;;;;;56.40;2.40;;;;;;;;;;5054970;28;20454;-71
2023/10/27 03:28:21;;;;;;;56.50;2.50;;;;;;;;;;5054210;28;21747;-71
2023/10/27 03:30:49;;;;;;;56.00;2.40;;;;;;;;;;5053980;28;20475;-71
2023/10/27 03:33:17;;;;;;;56.37;2.23;;;;;;;;;;5054051;28;20485;-71
2023/10/27 03:35:44;;;;;;;55.40;2.40;;;;;;;;;;5053711;28;20795;-71
2023/10/27 03:38:11;;;;;;;56.27;2.30;;;;;;;;;;5054182;28;20452;-71
2023/10/27 03:40:40;;;;;;;55.67;2.33;;;;;;;;;;5053910;28;20862;-72
2023/10/27 03:43:08;;;;;;;56.30;2.40;;;;;;;;;;5053802;28;20460;-70
2023/10/27 03:45:35;;;;;;;56.27;2.50;;;;;;;;;;5053806;28;20450;-71
2023/10/27 03:48:02;;;;;;;55.77;2.30;;;;;;;;;;5053821;28;20452;-71
2023/10/27 03:50:29;;;;;;;55.87;2.23;;;;;;;;;;5053422;28;20480;-71
2023/10/27 03:52:56;;;;;;;56.10;2.30;;;;;;;;;;5053913;28;20837;-72
2023/10/27 03:55:23;;;;;;;55.77;2.30;;;;;;;;;;5053543;28;20444;-72
2023/10/27 03:57:55;;;;;;;56.07;2.23;;;;;;;;;;5053652;28;20539;-71
2023/10/27 04:00:24;;;;;;;56.50;2.60;;;;;;;;;;5053264;28;20551;-71
2023/10/27 04:02:51;;;;;;;55.97;2.37;;;;;;;;;;5053595;28;20456;-70
2023/10/27 04:05:18;;;;;;;55.90;2.43;;;;;;;;;;5053241;28;20445;-71
2023/10/27 04:07:45;;;;;;;56.20;2.20;;;;;;;;;;5053369;28;20449;-72
2023/10/27 04:10:13;;;;;;;55.57;2.40;;;;;;;;;;5053210;28;20467;-71
2023/10/27 04:12:40;;;;;;;55.43;2.30;;;;;;;;;;5053291;28;20488;-71
2023/10/27 04:15:10;;;;;;;56.30;2.37;;;;;;;;;;5053315;28;20459;-71
2023/10/27 04:17:37;;;;;;;56.20;2.20;;;;;;;;;;5053298;28;20454;-71
2023/10/27 04:20:04;;;;;;;55.33;2.30;;;;;;;;;;5051543;28;21004;-70
2023/10/27 04:22:31;;;;;;;55.97;2.23;;;;;;;;;;5053321;28;20447;-72
2023/10/27 04:24:58;;;;;;;55.10;2.37;;;;;;;;;;5053007;28;20455;-71
2023/10/27 04:27:25;;;;;;;55.90;2.40;;;;;;;;;;5053091;28;20442;-72
2023/10/27 04:29:52;;;;;;;56.30;2.20;;;;;;;;;;5053087;28;20900;-71
2023/10/27 04:32:21;;;;;;;56.20;2.43;;;;;;;;;;5052961;28;20484;-71
2023/10/27 04:34:48;;;;;;;55.90;2.40;;;;;;;;;;5052844;28;20445;-70
2023/10/27 04:37:15;;;;;;;57.07;2.93;;;;;;;;;;5052821;28;20446;-72
2023/10/27 04:39:42;;;;;;;55.73;2.60;;;;;;;;;;5052687;28;21032;-71
2023/10/27 04:42:09;;;;;;;55.90;2.30;;;;;;;;;;5052701;28;20468;-71
2023/10/27 04:44:36;;;;;;;55.77;2.30;;;;;;;;;;5052502;28;20452;-71
2023/10/27 04:47:04;;;;;;;55.83;2.50;;;;;;;;;;5052654;28;20968;-71
2023/10/27 04:49:32;;;;;;;55.77;2.20;;;;;;;;;;5052673;28;20468;-71
2023/10/27 04:51:59;;;;;;;55.60;2.30;;;;;;;;;;5052688;28;20495;-71
2023/10/27 04:54:26;;;;;;;56.27;2.40;;;;;;;;;;5052422;28;20447;-71
2023/10/27 04:56:53;;;;;;;56.10;2.30;;;;;;;;;;5052456;28;20522;-72
2023/10/27 04:59:20;;;;;;;56.07;2.60;;;;;;;;;;5052284;28;20479;-71
2023/10/27 05:01:48;;;;;;;55.77;2.30;;;;;;;;;;5052537;28;20458;-71
2023/10/27 05:04:15;;;;;;;57.87;3.27;;;;;;;;;;5052405;28;20792;-71
2023/10/27 05:06:45;;;;;;;55.20;2.27;;;;;;;;;;5052874;28;20457;-72
2023/10/27 05:09:12;;;;;;;55.60;2.30;;;;;;;;;;5052154;28;20546;-72
2023/10/27 05:11:40;;;;;;;56.13;2.27;;;;;;;;;;5052072;28;20503;-71
2023/10/27 05:14:07;;;;;;;55.23;2.20;;;;;;;;;;5052458;28;20448;-71
2023/10/27 05:16:34;;;;;;;56.20;2.53;;;;;;;;;;5052417;28;20451;-71
2023/10/27 05:19:01;;;;;;;55.67;2.17;;;;;;;;;;5052057;28;20929;-71
2023/10/27 05:21:28;;;;;;;56.00;1.93;;;;;;;;;;5051916;28;20466;-71
2023/10/27 05:23:57;;;;;;;55.67;2.20;;;;;;;;;;5051829;28;20444;-71
2023/10/27 05:26:25;;;;;;;55.90;2.40;;;;;;;;;;5051896;28;20844;-72
2023/10/27 05:28:52;;;;;;;55.80;2.20;;;;;;;;;;5052082;28;20455;-71
2023/10/27 05:31:19;;;;;;;55.97;2.37;;;;;;;;;;5051283;28;20441;-71
2023/10/27 05:33:46;;;;;;;55.97;2.03;;;;;;;;;;5051874;28;20860;-71
2023/10/27 05:36:13;;;;;;;56.07;2.30;;;;;;;;;;5051456;28;20454;-71
2023/10/27 05:38:40;;;;;;;55.77;2.50;;;;;;;;;;5051485;28;20446;-71
2023/10/27 05:41:09;;;;;;;55.67;2.20;;;;;;;;;;5051176;28;20475;-71
2023/10/27 05:43:36;;;;;;;55.83;2.30;;;;;;;;;;5051768;28;20440;-71
2023/10/27 05:46:03;;;;;;;56.20;2.30;;;;;;;;;;5051543;28;20452;-71
2023/10/27 05:48:30;;;;;;;55.97;2.20;;;;;;;;;;5051589;28;20436;-71
2023/10/27 05:50:57;;;;;;;56.07;2.23;;;;;;;;;;5051343;28;20466;-71
2023/10/27 05:53:25;;;;;;;55.57;2.40;;;;;;;;;;5051045;28;20480;-71
2023/10/27 05:55:52;;;;;;;55.67;2.40;;;;;;;;;;5051594;28;20548;-71
2023/10/27 05:58:20;;;;;;;55.83;2.50;;;;;;;;;;5051428;28;20456;-71
2023/10/27 06:00:48;;;;;;;56.07;2.50;;;;;;;;;;5051294;28;20476;-72
2023/10/27 06:03:15;;;;;;;56.17;2.23;;;;;;;;;;5051306;28;20823;-72
2023/10/27 06:05:42;;;;;;;56.07;2.20;;;;;;;;;;5050992;28;20639;-72
2023/10/27 06:08:09;;;;;;;55.70;2.50;;;;;;;;;;5051267;28;20448;-72
2023/10/27 06:10:37;;;;;;;55.63;2.17;;;;;;;;;;5051140;28;20472;-72
2023/10/27 06:13:04;;;;;;;55.90;2.27;;;;;;;;;;5051298;28;20492;-72
2023/10/27 06:15:33;;;;;;;55.67;2.27;;;;;;;;;;5050936;28;21035;-72
2023/10/27 06:18:00;;;;;;;56.00;2.30;;;;;;;;;;5051145;28;20473;-72
2023/10/27 06:20:27;;;;;;;55.63;2.20;;;;;;;;;;5050808;28;20474;-73
2023/10/27 06:22:54;;;;;;;55.73;2.20;;;;;;;;;;5051213;28;20826;-72
2023/10/27 06:25:25;;;;;;;55.80;2.20;;;;;;;;;;5050838;28;20451;-72
2023/10/27 06:27:52;;;;;;;55.87;2.20;;;;;;;;;;5051396;28;20457;-71
2023/10/27 06:30:20;;;;;;;55.10;2.13;;;;;;;;;;5051028;28;21363;-72
2023/10/27 06:32:49;;;;;;;55.93;2.17;;;;;;;;;;5050772;28;20526;-72
2023/10/27 06:35:16;;;;;;;55.73;2.40;;;;;;;;;;5051088;28;20548;-72
2023/10/27 06:37:43;;;;;;;56.00;2.27;;;;;;;;;;5050636;28;20450;-71
2023/10/27 06:40:10;;;;;;;55.97;2.50;;;;;;;;;;5050614;28;20466;-70
2023/10/27 06:42:38;;;;;;;56.13;2.60;;;;;;;;;;5050312;28;20456;-72
2023/10/27 06:45:05;;;;;;;57.97;2.60;;;;;;;;;;5050779;28;20455;-71
2023/10/27 06:47:32;;;;;;;55.57;2.97;;;;;;;;;;5051220;28;20961;-72
2023/10/27 06:50:02;;;;;;;56.30;2.20;;;;;;;;;;5051090;28;20470;-72
2023/10/27 06:52:30;;;;;;;55.53;2.20;;;;;;;;;;5050785;28;20590;-71
2023/10/27 06:54:57;;;;;;;56.27;2.20;;;;;;;;;;5050477;28;20444;-71
2023/10/27 06:57:24;;;;;;;55.57;2.40;;;;;;;;;;5050689;28;20449;-72
2023/10/27 06:59:51;;;;;;;56.67;2.93;;;;;;;;;;5050726;28;20460;-71
2023/10/27 07:02:18;;;;;;;55.90;2.00;;;;;;;;;;5050314;28;20465;-71
2023/10/27 07:04:45;;;;;;;55.33;2.10;;;;;;;;;;5050413;28;20452;-71
2023/10/27 07:07:14;;;;;;;56.07;2.17;;;;;;;;;;5050413;28;20901;-71
2023/10/27 07:09:42;;;;;;;55.70;2.20;;;;;;;;;;5050593;28;20818;-71
2023/10/27 07:12:09;;;;;;;55.57;1.90;;;;;;;;;;5050299;28;20448;-71
2023/10/27 07:14:37;;;;;;;55.87;2.27;;;;;;;;;;5050236;28;20446;-71
2023/10/27 07:17:04;;;;;;;56.07;2.67;;;;;;;;;;5050850;28;20459;-72
2023/10/27 07:19:34;;;;;;;55.97;2.33;;;;;;;;;;5050510;28;20473;-71
2023/10/27 07:22:01;;;;;;;55.57;2.10;;;;;;;;;;5050274;28;20450;-71
2023/10/27 07:24:32;;;;;;;55.73;2.10;;;;;;;;;;5050213;28;20840;-71
2023/10/27 07:26:59;;;;;;;55.50;2.30;;;;;;;;;;5050269;28;20754;-71
2023/10/27 07:29:26;;;;;;;55.70;2.50;;;;;;;;;;5050402;28;20477;-71
2023/10/27 07:31:54;;;;;;;55.87;2.33;;;;;;;;;;5050376;28;20448;-71
2023/10/27 07:34:21;;;;;;;55.63;2.33;;;;;;;;;;5050241;28;20490;-71
2023/10/27 07:36:48;;;;;;;55.27;2.30;;;;;;;;;;5050293;28;20444;-71
2023/10/27 07:39:15;;;;;;;55.63;2.40;;;;;;;;;;5050088;28;20766;-71
2023/10/27 07:41:44;;;;;;;55.17;2.00;;;;;;;;;;5050031;28;20445;-71
2023/10/27 07:44:11;;;;;;;55.23;2.10;;;;;;;;;;5050358;28;20450;-71
2023/10/27 07:46:38;;;;;;;55.67;2.10;;;;;;;;;;5050300;28;20467;-70
2023/10/27 07:49:06;;;;;;;55.20;2.10;;;;;;;;;;5050267;28;20487;-70
2023/10/27 07:51:33;;;;;;;55.77;1.90;;;;;;;;;;5050089;28;20454;-71
2023/10/27 07:54:00;;;;;;;55.17;2.07;;;;;;;;;;5051789;28;20708;-70
2023/10/27 07:56:29;;;;;;;55.07;2.23;;;;;;;;;;5053603;28;20929;-70
2023/10/27 07:58:57;;;;;;;55.40;1.90;;;;;;;;;;5053934;28;20507;-70
2023/10/27 08:01:24;;;;;;;55.57;2.10;;;;;;;;;;5053394;28;20452;-71
2023/10/27 08:03:52;;;;;;;56.07;2.00;;;;;;;;;;5053579;28;20447;-71
2023/10/27 08:06:19;;;;;;;55.50;2.30;;;;;;;;;;5053342;28;20464;-73
2023/10/27 08:08:46;;;;;;;55.47;2.10;;;;;;;;;;5053874;28;20455;-70
2023/10/27 08:11:17;;;;;;;55.57;1.97;;;;;;;;;;5053561;28;20474;-70
2023/10/27 08:13:44;;;;;;;55.17;2.10;;;;;;;;;;5053547;28;20488;-70
2023/10/27 08:16:13;;;;;;;55.43;2.00;;;;;;;;;;5053714;28;20974;-70
2023/10/27 08:18:40;;;;;;;55.73;2.20;;;;;;;;;;5053516;28;20471;-70
2023/10/27 08:21:07;;;;;;;55.90;2.10;;;;;;;;;;5052935;28;20470;-71
2023/10/27 08:23:34;;;;;;;55.47;1.90;;;;;;;;;;5053080;28;20942;-71
2023/10/27 08:26:01;;;;;;;55.50;1.93;;;;;;;;;;5053294;28;20472;-70
2023/10/27 08:28:29;;;;;;;55.70;2.17;;;;;;;;;;5053178;28;20436;-70
2023/10/27 08:30:57;;;;;;;55.70;2.17;;;;;;;;;;5052922;28;20575;-71
2023/10/27 08:33:26;;;;;;;55.50;2.00;;;;;;;;;;5053034;28;20488;-72
2023/10/27 08:35:53;;;;;;;55.47;2.00;;;;;;;;;;5052648;28;20446;-70
2023/10/27 08:38:22;;;;;;;55.80;2.10;;;;;;;;;;5052805;28;20975;-70
2023/10/27 08:40:49;;;;;;;55.70;2.00;;;;;;;;;;5053022;28;20476;-70
2023/10/27 08:43:16;;;;;;;55.17;2.20;;;;;;;;;;5052889;28;20455;-70
2023/10/27 08:45:44;;;;;;;55.80;2.10;;;;;;;;;;5053340;28;20460;-71
2023/10/27 08:48:11;;;;;;;55.97;2.20;;;;;;;;;;5053258;28;20944;-70
2023/10/27 08:50:41;;;;;;;55.43;2.07;;;;;;;;;;5052349;28;20980;-71
2023/10/27 08:53:11;;;;;;;55.60;1.70;;;;;;;;;;5052583;28;20488;-71
2023/10/27 08:55:38;;;;;;;55.47;1.90;;;;;;;;;;5052522;28;20440;-72
2023/10/27 08:58:06;;;;;;;55.37;1.90;;;;;;;;;;5052723;28;20484;-71
2023/10/27 09:00:33;;;;;;;55.67;2.10;;;;;;;;;;5052192;28;20481;-71
2023/10/27 09:03:00;;;;;;;55.70;2.10;;;;;;;;;;5052663;28;20441;-71
2023/10/27 09:05:28;;;;;;;56.00;1.90;;;;;;;;;;5051534;28;20465;-70
2023/10/27 09:07:56;;;;;;;55.90;2.00;;;;;;;;;;5052580;28;20452;-71
2023/10/27 09:10:23;;;;;;;55.27;2.00;;;;;;;;;;5052131;28;20468;-70
2023/10/27 09:12:58;;;;;;;55.57;2.00;;;;;;;;;;5052324;28;20467;-71
2023/10/27 09:15:25;;;;;;;56.33;2.03;;;;;;;;;;5052004;28;20455;-70
2023/10/27 09:17:52;;;;;;;55.47;2.00;;;;;;;;;;5052135;28;20956;-70
2023/10/27 09:20:20;;;;;;;55.57;1.90;;;;;;;;;;5051795;28;20468;-70
2023/10/27 09:22:56;;;;;;;55.77;1.90;;;;;;;;;;5052217;28;20850;-71
2023/10/27 09:25:28;;;;;;;55.37;2.10;;;;;;;;;;5051894;28;20452;-70
2023/10/27 09:27:55;;;;;;;55.17;2.10;;;;;;;;;;5052054;28;20454;-70
2023/10/27 09:30:29;;;;;;;55.57;1.80;;;;;;;;;;5051992;28;20492;-70
2023/10/27 09:32:56;;;;;;;55.00;1.93;;;;;;;;;;5051893;28;20452;-70
2023/10/27 09:35:25;;;;;;;55.37;1.93;;;;;;;;;;5051642;28;20461;-70
2023/10/27 09:37:54;;;;;;;55.60;1.90;;;;;;;;;;5051834;28;20452;-70
2023/10/27 09:40:21;;;;;;;55.80;2.20;;;;;;;;;;5051452;28;20476;-70
2023/10/27 09:42:54;;;;;;;55.67;1.87;;;;;;;;;;5051849;28;20466;-70
2023/10/27 09:45:22;;;;;;;56.00;2.10;;;;;;;;;;5051467;28;20465;-71
2023/10/27 09:47:51;;;;;;;55.90;2.00;;;;;;;;;;5051742;28;20448;-72
2023/10/27 09:50:20;;;;;;;55.90;2.13;;;;;;;;;;5051442;28;20539;-72
2023/10/27 09:52:47;;;;;;;55.80;2.10;;;;;;;;;;5051601;28;20451;-71
2023/10/27 09:55:17;;;;;;;56.00;2.30;;;;;;;;;;5051182;28;20489;-71
2023/10/27 09:57:45;;;;;;;55.67;2.10;;;;;;;;;;5051450;28;20941;-72
2023/10/27 10:00:14;;;;;;;56.03;2.67;;;;;;;;;;5051401;28;20466;-72
2023/10/27 10:02:42;;;;;;;55.70;2.20;;;;;;;;;;5051514;28;20457;-71
2023/10/27 10:05:11;;;;;;;55.67;2.10;;;;;;;;;;5051554;28;20517;-73
2023/10/27 10:07:41;;;;;;;55.97;2.10;;;;;;;;;;5051665;28;20484;-72
2023/10/27 10:10:21;;;;;;;55.90;2.20;;;;;;;;;;5051605;28;20474;-72
2023/10/27 10:13:02;;;;;;;56.10;2.30;;;;;;;;;;5051584;28;20446;-71
2023/10/27 10:15:32;;;;;;;55.47;1.97;;;;;;;;;;5051125;28;20448;-71
2023/10/27 10:17:59;;;;;;;55.67;2.00;;;;;;;;;;5050932;28;20497;-71
2023/10/27 10:20:45;;;;;;;56.10;1.97;;;;;;;;;;5051181;28;20464;-72
2023/10/27 10:23:12;;;;;;;55.90;2.20;;;;;;;;;;5051016;28;20953;-73
2023/10/27 10:25:50;;;;;;;57.17;2.00;;;;;;;;;;5050682;28;20937;-72
2023/10/27 10:28:24;;;;;;;55.57;2.00;;;;;;;;;;5050861;28;20444;-70
2023/10/27 10:31:06;;;;;;;55.77;2.00;;;;;;;;;;5050951;28;20488;-70
2023/10/27 10:33:34;;;;;;;55.73;2.00;;;;;;;;;;5050635;28;20492;-69
2023/10/27 10:36:18;;;;;;;55.47;1.93;;;;;;;;;;5050884;28;20502;-72
2023/10/27 10:38:45;;;;;;;55.67;2.20;;;;;;;;;;5051042;28;20444;-70
2023/10/27 10:41:14;;;;;;;55.57;2.13;;;;;;;;;;5050795;28;20464;-72
2023/10/27 10:43:41;;;;;;;55.90;2.10;;;;;;;;;;5050849;28;20440;-71
2023/10/27 10:46:11;;;;;;;55.37;2.10;;;;;;;;;;5050632;28;20440;-71
2023/10/27 10:48:41;;;;;;;55.27;1.97;;;;;;;;;;5050672;28;20457;-70
2023/10/27 10:51:14;;;;;;;55.30;2.27;;;;;;;;;;5050448;28;20844;-71
2023/10/27 10:53:41;;;;;;;55.47;2.10;;;;;;;;;;5050633;28;20487;-72
2023/10/27 10:56:08;;;;;;;55.63;2.03;;;;;;;;;;5050683;28;20448;-71
2023/10/27 10:58:36;;;;;;;55.53;2.00;;;;;;;;;;5050851;28;20508;-72
2023/10/27 11:01:04;;;;;;;55.57;2.10;;;;;;;;;;5050444;28;20475;-72
2023/10/27 11:03:33;;;;;;;55.53;1.80;;;;;;;;;;5050792;28;20451;-71
2023/10/27 11:06:02;;;;;;;55.80;2.20;;;;;;;;;;5051151;28;20447;-71
2023/10/27 11:08:30;;;;;;;55.77;2.33;;;;;;;;;;5050665;28;20837;-70
2023/10/27 11:11:01;;;;;;;55.97;1.97;;;;;;;;;;5050584;28;20468;-71
2023/10/27 11:13:29;;;;;;;55.97;1.83;;;;;;;;;;5050439;28;21038;-71
2023/10/27 11:15:56;;;;;;;55.80;2.00;;;;;;;;;;5050334;28;20448;-71
2023/10/27 11:18:23;;;;;;;55.83;1.90;;;;;;;;;;5050719;28;20446;-72
2023/10/27 11:20:51;;;;;;;55.77;2.00;;;;;;;;;;5050441;28;20467;-71
2023/10/27 11:23:19;;;;;;;55.73;2.20;;;;;;;;;;5050809;28;20452;-70
2023/10/27 11:25:46;;;;;;;55.87;2.00;;;;;;;;;;5050213;28;20474;-71
2023/10/27 11:28:23;;;;;;;55.47;1.80;;;;;;;;;;5051136;28;20448;-71
2023/10/27 11:31:07;;;;;;;55.90;2.67;;;;;;;;;;5053934;28;20472;-71
2023/10/27 11:33:35;;;;;;;55.70;2.00;;;;;;;;;;5054311;28;20451;-72
2023/10/27 11:36:02;;;;;;;56.40;2.30;;;;;;;;;;5053943;28;20792;-71
2023/10/27 11:38:34;;;;;;;57.90;2.20;;;;;;;;;;5053994;28;20447;-72
2023/10/27 11:41:11;;;;;;;55.77;2.00;;;;;;;;;;5053730;28;20494;-72
2023/10/27 11:43:38;;;;;;;56.07;2.20;;;;;;;;;;5053857;28;20454;-71
2023/10/27 11:46:12;;;;;;;56.30;2.30;;;;;;;;;;5053637;28;20452;-71
2023/10/27 11:48:39;;;;;;;55.97;2.10;;;;;;;;;;5054074;28;20451;-71
2023/10/27 11:51:07;;;;;;;55.97;1.93;;;;;;;;;;5053682;28;20475;-72
2023/10/27 11:53:35;;;;;;;55.87;1.93;;;;;;;;;;5053565;28;20824;-70
2023/10/27 11:56:04;;;;;;;56.03;1.97;;;;;;;;;;5053358;28;20979;-71
2023/10/27 11:58:31;;;;;;;56.07;1.90;;;;;;;;;;5053733;28;20524;-71
2023/10/27 12:00:58;;;;;;;56.10;2.10;;;;;;;;;;5053284;28;20480;-72
2023/10/27 12:03:26;;;;;;;55.97;2.00;;;;;;;;;;5053568;28;20445;-71
2023/10/27 12:05:53;;;;;;;55.97;2.10;;;;;;;;;;5053393;28;20443;-71
2023/10/27 12:08:20;;;;;;;55.90;2.10;;;;;;;;;;5053283;28;20444;-72
2023/10/27 12:10:52;;;;;;;55.90;2.10;;;;;;;;;;5053049;28;20515;-71
2023/10/27 12:13:20;;;;;;;56.00;2.00;;;;;;;;;;5053631;28;20458;-72
2023/10/27 12:15:47;;;;;;;56.20;2.00;;;;;;;;;;5053087;28;20588;-70
2023/10/27 12:18:14;;;;;;;56.20;1.90;;;;;;;;;;5053483;28;20455;-72
2023/10/27 12:20:41;;;;;;;56.17;1.93;;;;;;;;;;5053067;28;21015;-71
2023/10/27 12:23:09;;;;;;;55.73;2.00;;;;;;;;;;5053364;28;20453;-71
2023/10/27 12:25:36;;;;;;;55.57;1.70;;;;;;;;;;5053235;28;20451;-71
2023/10/27 12:28:04;;;;;;;56.10;2.10;;;;;;;;;;5053221;28;20936;-71
2023/10/27 12:30:33;;;;;;;55.67;1.90;;;;;;;;;;5052852;28;20511;-70
2023/10/27 12:33:03;;;;;;;55.77;1.80;;;;;;;;;;5053006;28;20478;-71
2023/10/27 12:35:30;;;;;;;55.63;1.90;;;;;;;;;;5052637;28;20497;-72
2023/10/27 12:37:58;;;;;;;55.57;1.83;;;;;;;;;;5053165;28;20451;-72
2023/10/27 12:40:25;;;;;;;55.77;1.90;;;;;;;;;;5051725;28;20554;-72
2023/10/27 12:42:52;;;;;;;55.87;1.83;;;;;;;;;;5052903;28;20454;-72
2023/10/27 12:45:20;;;;;;;56.50;2.10;;;;;;;;;;5052839;28;20482;-71
2023/10/27 12:47:48;;;;;;;56.00;1.87;;;;;;;;;;5052536;28;20960;-71
2023/10/27 12:50:16;;;;;;;55.87;1.80;;;;;;;;;;5052694;28;20482;-72
2023/10/27 12:52:43;;;;;;;56.07;2.33;;;;;;;;;;5052846;28;20453;-72
2023/10/27 12:55:11;;;;;;;55.87;1.97;;;;;;;;;;5052422;28;20503;-72
2023/10/27 12:57:38;;;;;;;55.70;1.80;;;;;;;;;;5052651;28;20460;-72
2023/10/27 13:00:08;;;;;;;55.57;1.80;;;;;;;;;;5052172;28;20466;-73
2023/10/27 13:02:36;;;;;;;56.20;2.20;;;;;;;;;;5052223;28;20563;-72
2023/10/27 13:05:04;;;;;;;55.60;1.90;;;;;;;;;;5052599;28;20448;-73
2023/10/27 13:07:31;;;;;;;55.70;1.70;;;;;;;;;;5052418;28;20464;-72
2023/10/27 13:09:58;;;;;;;55.77;1.70;;;;;;;;;;5052401;28;20470;-71
2023/10/27 13:12:25;;;;;;;55.70;1.77;;;;;;;;;;5052303;28;20446;-73
2023/10/27 13:14:52;;;;;;;55.67;1.80;;;;;;;;;;5051817;28;20481;-72
2023/10/27 13:17:19;;;;;;;56.10;2.07;;;;;;;;;;5052195;28;20445;-72
2023/10/27 13:19:47;;;;;;;56.07;1.90;;;;;;;;;;5052080;28;20869;-71
2023/10/27 13:22:14;;;;;;;56.17;2.10;;;;;;;;;;5052502;28;20468;-72
2023/10/27 13:24:42;;;;;;;56.17;1.90;;;;;;;;;;5052101;28;20449;-72
2023/10/27 13:27:09;;;;;;;59.63;4.23;;;;;;;;;;5052472;28;20917;-72
2023/10/27 13:29:37;;;;;;;56.00;1.97;;;;;;;;;;5051766;28;20839;-73
2023/10/27 13:32:04;;;;;;;55.90;2.13;;;;;;;;;;5052225;28;20458;-73
2023/10/27 13:34:31;;;;;;;55.87;2.17;;;;;;;;;;5051797;28;20480;-72
2023/10/27 13:37:01;;;;;;;55.77;1.70;;;;;;;;;;5051882;28;20461;-73
2023/10/27 13:39:29;;;;;;;56.10;1.80;;;;;;;;;;5051584;28;20908;-71
2023/10/27 13:41:56;;;;;;;55.83;2.00;;;;;;;;;;5043469;28;20820;-72
2023/10/27 13:44:26;;;;;;;55.97;2.00;;;;;;;;;;5051671;28;20447;-71
2023/10/27 13:46:53;;;;;;;56.00;2.00;;;;;;;;;;5051846;28;20441;-72
2023/10/27 13:49:21;;;;;;;56.13;2.20;;;;;;;;;;5052202;28;20464;-72
2023/10/27 13:51:48;;;;;;;56.10;2.00;;;;;;;;;;5051427;28;20478;-72
2023/10/27 13:54:17;;;;;;;56.17;2.10;;;;;;;;;;5051508;28;20447;-72
2023/10/27 13:56:44;;;;;;;56.17;2.20;;;;;;;;;;5051296;28;20491;-72
2023/10/27 13:59:11;;;;;;;56.13;2.20;;;;;;;;;;5051613;28;20496;-73
2023/10/27 14:01:38;;;;;;;55.97;2.00;;;;;;;;;;5051133;28;20462;-72
2023/10/27 14:04:06;;;;;;;56.17;2.10;;;;;;;;;;5051354;28;20839;-73
2023/10/27 14:06:34;;;;;;;56.07;2.10;;;;;;;;;;5051006;28;20542;-72
2023/10/27 14:09:02;;;;;;;55.97;2.10;;;;;;;;;;5050948;28;21015;-72
2023/10/27 14:11:30;;;;;;;55.90;2.17;;;;;;;;;;5051169;28;20460;-72
2023/10/27 14:13:57;;;;;;;55.83;1.80;;;;;;;;;;5042922;28;20452;-72
2023/10/27 14:16:25;;;;;;;56.17;2.00;;;;;;;;;;5051145;28;20517;-72
2023/10/27 14:18:53;;;;;;;56.10;2.00;;;;;;;;;;5051441;28;20512;-73
2023/10/27 14:21:20;;;;;;;56.10;1.80;;;;;;;;;;5051146;28;20448;-72
2023/10/27 14:23:48;;;;;;;56.17;1.90;;;;;;;;;;5050826;28;20788;-72
2023/10/27 14:26:16;;;;;;;56.10;2.00;;;;;;;;;;5051015;28;20971;-73
2023/10/27 14:28:44;;;;;;;55.97;2.00;;;;;;;;;;5050958;28;20447;-72
2023/10/27 14:31:11;;;;;;;56.13;1.97;;;;;;;;;;5050805;28;20474;-72
2023/10/27 14:33:39;;;;;;;55.97;1.90;;;;;;;;;;5050725;28;20448;-72
2023/10/27 14:36:08;;;;;;;56.10;2.00;;;;;;;;;;5050485;28;20544;-72